sensor_id;sensor_type;location;lat;lon;timestamp;P1;durP1;ratioP1;P2;durP2;ratioP2
80111;SDS011;69421;51.062;3.728;2024-01-06T00:00:49;5.73;;;1.43;;
80111;SDS011;69421;51.062;3.728;2024-01-06T00:03:14;6.33;;;1.43;;
80111;SDS011;69421;51.062;3.728;2024-01-06T00:05:40;4.83;;;2.00;;
80111;SDS011;69421;51.062;3.728;2024-01-06T00:08:05;4.70;;;2.20;;
80111;SDS011;69421;51.062;3.728;2024-01-06T00:10:31;7.65;;;1.75;;
80111;SDS011;69421;51.062;3.728;2024-01-06T00:12:57;8.55;;;1.85;;
80111;SDS011;69421;51.062;3.728;2024-01-06T00:15:22;5.75;;;1.15;;
80111;SDS011;69421;51.062;3.728;2024-01-06T00:17:48;5.65;;;1.52;;
80111;SDS011;69421;51.062;3.728;2024-01-06T00:20:13;2.10;;;0.55;;
80111;SDS011;69421;51.062;3.728;2024-01-06T00:22:39;5.90;;;1.30;;
80111;SDS011;69421;51.062;3.728;2024-01-06T00:25:06;4.60;;;1.20;;
80111;SDS011;69421;51.062;3.728;2024-01-06T00:27:32;5.45;;;0.80;;
80111;SDS011;69421;51.062;3.728;2024-01-06T00:29:57;4.23;;;0.80;;
80111;SDS011;69421;51.062;3.728;2024-01-06T00:32:22;3.53;;;0.77;;
80111;SDS011;69421;51.062;3.728;2024-01-06T00:34:48;4.37;;;1.37;;
80111;SDS011;69421;51.062;3.728;2024-01-06T00:37:13;3.60;;;1.07;;
80111;SDS011;69421;51.062;3.728;2024-01-06T00:39:39;3.08;;;1.02;;
80111;SDS011;69421;51.062;3.728;2024-01-06T00:42:04;4.67;;;0.70;;
80111;SDS011;69421;51.062;3.728;2024-01-06T00:44:29;6.82;;;0.85;;
80111;SDS011;69421;51.062;3.728;2024-01-06T00:46:55;6.77;;;1.10;;
80111;SDS011;69421;51.062;3.728;2024-01-06T00:49:20;4.10;;;0.90;;
80111;SDS011;69421;51.062;3.728;2024-01-06T00:51:46;3.77;;;0.80;;
80111;SDS011;69421;51.062;3.728;2024-01-06T00:54:11;4.72;;;0.75;;
80111;SDS011;69421;51.062;3.728;2024-01-06T00:56:37;7.88;;;1.25;;
80111;SDS011;69421;51.062;3.728;2024-01-06T00:59:02;4.77;;;1.50;;
80111;SDS011;69421;51.062;3.728;2024-01-06T01:01:27;6.22;;;0.88;;
80111;SDS011;69421;51.062;3.728;2024-01-06T01:03:53;3.50;;;0.70;;
80111;SDS011;69421;51.062;3.728;2024-01-06T01:06:18;4.82;;;0.80;;
80111;SDS011;69421;51.062;3.728;2024-01-06T01:08:44;5.23;;;1.37;;
80111;SDS011;69421;51.062;3.728;2024-01-06T01:11:10;3.33;;;1.42;;
80111;SDS011;69421;51.062;3.728;2024-01-06T01:13:36;6.55;;;0.90;;
80111;SDS011;69421;51.062;3.728;2024-01-06T01:16:01;7.03;;;1.33;;
80111;SDS011;69421;51.062;3.728;2024-01-06T01:18:28;5.03;;;1.55;;
80111;SDS011;69421;51.062;3.728;2024-01-06T01:20:53;5.20;;;1.23;;
80111;SDS011;69421;51.062;3.728;2024-01-06T01:23:18;3.45;;;1.60;;
80111;SDS011;69421;51.062;3.728;2024-01-06T01:25:44;3.23;;;1.17;;
80111;SDS011;69421;51.062;3.728;2024-01-06T01:28:09;4.18;;;2.25;;
80111;SDS011;69421;51.062;3.728;2024-01-06T01:30:35;3.87;;;1.10;;
80111;SDS011;69421;51.062;3.728;2024-01-06T01:33:00;5.23;;;1.30;;
80111;SDS011;69421;51.062;3.728;2024-01-06T01:35:25;4.20;;;1.17;;
80111;SDS011;69421;51.062;3.728;2024-01-06T01:37:51;5.63;;;1.77;;
80111;SDS011;69421;51.062;3.728;2024-01-06T01:40:16;3.13;;;1.00;;
80111;SDS011;69421;51.062;3.728;2024-01-06T01:42:44;4.00;;;1.35;;
80111;SDS011;69421;51.062;3.728;2024-01-06T01:45:10;3.17;;;1.40;;
80111;SDS011;69421;51.062;3.728;2024-01-06T01:47:36;5.03;;;1.43;;
80111;SDS011;69421;51.062;3.728;2024-01-06T01:50:01;4.68;;;1.40;;
80111;SDS011;69421;51.062;3.728;2024-01-06T01:52:28;4.47;;;1.30;;
80111;SDS011;69421;51.062;3.728;2024-01-06T01:54:57;4.25;;;1.73;;
80111;SDS011;69421;51.062;3.728;2024-01-06T01:57:24;4.07;;;1.27;;
80111;SDS011;69421;51.062;3.728;2024-01-06T01:59:50;5.97;;;1.85;;
80111;SDS011;69421;51.062;3.728;2024-01-06T02:02:18;4.03;;;1.35;;
80111;SDS011;69421;51.062;3.728;2024-01-06T02:04:44;6.28;;;1.50;;
80111;SDS011;69421;51.062;3.728;2024-01-06T02:07:10;5.57;;;1.25;;
80111;SDS011;69421;51.062;3.728;2024-01-06T02:09:35;5.47;;;1.52;;
80111;SDS011;69421;51.062;3.728;2024-01-06T02:12:01;3.53;;;1.77;;
80111;SDS011;69421;51.062;3.728;2024-01-06T02:14:27;3.40;;;1.15;;
80111;SDS011;69421;51.062;3.728;2024-01-06T02:16:53;3.08;;;0.68;;
80111;SDS011;69421;51.062;3.728;2024-01-06T02:19:18;5.20;;;1.07;;
80111;SDS011;69421;51.062;3.728;2024-01-06T02:24:14;4.07;;;0.77;;
80111;SDS011;69421;51.062;3.728;2024-01-06T02:26:39;2.43;;;0.83;;
80111;SDS011;69421;51.062;3.728;2024-01-06T02:29:05;1.93;;;0.80;;
80111;SDS011;69421;51.062;3.728;2024-01-06T02:31:30;2.60;;;1.47;;
80111;SDS011;69421;51.062;3.728;2024-01-06T02:33:55;5.13;;;1.00;;
80111;SDS011;69421;51.062;3.728;2024-01-06T02:36:21;3.93;;;1.00;;
80111;SDS011;69421;51.062;3.728;2024-01-06T02:38:46;2.83;;;0.93;;
80111;SDS011;69421;51.062;3.728;2024-01-06T02:41:12;5.17;;;1.80;;
80111;SDS011;69421;51.062;3.728;2024-01-06T02:43:37;4.00;;;1.47;;
80111;SDS011;69421;51.062;3.728;2024-01-06T02:46:02;3.47;;;1.40;;
80111;SDS011;69421;51.062;3.728;2024-01-06T02:48:28;4.53;;;1.30;;
80111;SDS011;69421;51.062;3.728;2024-01-06T02:50:55;4.28;;;2.00;;
80111;SDS011;69421;51.062;3.728;2024-01-06T02:53:21;6.50;;;1.58;;
80111;SDS011;69421;51.062;3.728;2024-01-06T02:55:46;7.30;;;1.70;;
80111;SDS011;69421;51.062;3.728;2024-01-06T02:58:12;5.50;;;1.83;;
80111;SDS011;69421;51.062;3.728;2024-01-06T03:00:37;4.30;;;1.80;;
80111;SDS011;69421;51.062;3.728;2024-01-06T03:03:02;4.03;;;1.52;;
80111;SDS011;69421;51.062;3.728;2024-01-06T03:05:28;3.65;;;1.63;;
80111;SDS011;69421;51.062;3.728;2024-01-06T03:07:54;4.80;;;1.13;;
80111;SDS011;69421;51.062;3.728;2024-01-06T03:10:19;4.23;;;1.50;;
80111;SDS011;69421;51.062;3.728;2024-01-06T03:12:44;3.90;;;1.13;;
80111;SDS011;69421;51.062;3.728;2024-01-06T03:15:10;2.93;;;1.10;;
80111;SDS011;69421;51.062;3.728;2024-01-06T03:17:36;2.08;;;0.90;;
80111;SDS011;69421;51.062;3.728;2024-01-06T03:20:01;4.63;;;1.90;;
80111;SDS011;69421;51.062;3.728;2024-01-06T03:22:29;5.10;;;1.70;;
80111;SDS011;69421;51.062;3.728;2024-01-06T03:24:54;4.18;;;1.27;;
80111;SDS011;69421;51.062;3.728;2024-01-06T03:27:19;3.80;;;1.43;;
80111;SDS011;69421;51.062;3.728;2024-01-06T03:29:45;4.38;;;1.73;;
80111;SDS011;69421;51.062;3.728;2024-01-06T03:32:10;3.87;;;1.50;;
80111;SDS011;69421;51.062;3.728;2024-01-06T03:34:36;3.50;;;1.70;;
80111;SDS011;69421;51.062;3.728;2024-01-06T03:37:01;4.55;;;1.67;;
80111;SDS011;69421;51.062;3.728;2024-01-06T03:39:27;2.22;;;1.42;;
80111;SDS011;69421;51.062;3.728;2024-01-06T03:41:52;5.40;;;2.00;;
80111;SDS011;69421;51.062;3.728;2024-01-06T03:44:18;5.40;;;1.48;;
80111;SDS011;69421;51.062;3.728;2024-01-06T03:46:44;6.47;;;1.90;;
80111;SDS011;69421;51.062;3.728;2024-01-06T03:49:09;5.37;;;2.07;;
80111;SDS011;69421;51.062;3.728;2024-01-06T03:51:34;3.60;;;1.43;;
80111;SDS011;69421;51.062;3.728;2024-01-06T03:54:00;4.63;;;2.03;;
80111;SDS011;69421;51.062;3.728;2024-01-06T03:56:25;3.03;;;1.40;;
80111;SDS011;69421;51.062;3.728;2024-01-06T03:58:51;4.88;;;1.67;;
80111;SDS011;69421;51.062;3.728;2024-01-06T04:01:16;5.43;;;1.77;;
80111;SDS011;69421;51.062;3.728;2024-01-06T04:03:41;2.37;;;1.30;;
80111;SDS011;69421;51.062;3.728;2024-01-06T04:06:07;7.50;;;2.30;;
80111;SDS011;69421;51.062;3.728;2024-01-06T04:08:32;4.32;;;1.67;;
80111;SDS011;69421;51.062;3.728;2024-01-06T04:10:58;4.07;;;1.40;;
80111;SDS011;69421;51.062;3.728;2024-01-06T04:13:23;3.23;;;1.50;;
80111;SDS011;69421;51.062;3.728;2024-01-06T04:15:50;5.53;;;1.48;;
80111;SDS011;69421;51.062;3.728;2024-01-06T04:18:15;4.50;;;1.40;;
80111;SDS011;69421;51.062;3.728;2024-01-06T04:20:41;2.95;;;1.30;;
80111;SDS011;69421;51.062;3.728;2024-01-06T04:23:06;2.97;;;1.50;;
80111;SDS011;69421;51.062;3.728;2024-01-06T04:25:32;5.03;;;1.83;;
80111;SDS011;69421;51.062;3.728;2024-01-06T04:27:57;8.30;;;2.10;;
80111;SDS011;69421;51.062;3.728;2024-01-06T04:30:22;4.30;;;1.73;;
80111;SDS011;69421;51.062;3.728;2024-01-06T04:32:50;5.68;;;2.63;;
80111;SDS011;69421;51.062;3.728;2024-01-06T04:35:16;4.40;;;2.65;;
80111;SDS011;69421;51.062;3.728;2024-01-06T04:37:42;5.47;;;1.70;;
80111;SDS011;69421;51.062;3.728;2024-01-06T04:40:07;5.93;;;1.70;;
80111;SDS011;69421;51.062;3.728;2024-01-06T04:42:33;8.75;;;2.40;;
80111;SDS011;69421;51.062;3.728;2024-01-06T04:44:58;5.75;;;2.20;;
80111;SDS011;69421;51.062;3.728;2024-01-06T04:47:24;5.30;;;1.60;;
80111;SDS011;69421;51.062;3.728;2024-01-06T04:49:50;8.07;;;2.25;;
80111;SDS011;69421;51.062;3.728;2024-01-06T04:52:15;5.95;;;3.05;;
80111;SDS011;69421;51.062;3.728;2024-01-06T04:54:41;7.22;;;2.80;;
80111;SDS011;69421;51.062;3.728;2024-01-06T04:57:06;4.87;;;2.53;;
80111;SDS011;69421;51.062;3.728;2024-01-06T04:59:31;5.97;;;2.67;;
80111;SDS011;69421;51.062;3.728;2024-01-06T05:01:57;6.07;;;2.23;;
80111;SDS011;69421;51.062;3.728;2024-01-06T05:04:23;7.13;;;3.15;;
80111;SDS011;69421;51.062;3.728;2024-01-06T05:06:50;6.85;;;3.13;;
80111;SDS011;69421;51.062;3.728;2024-01-06T05:09:16;9.73;;;3.33;;
80111;SDS011;69421;51.062;3.728;2024-01-06T05:11:43;9.52;;;3.50;;
80111;SDS011;69421;51.062;3.728;2024-01-06T05:14:08;6.80;;;3.30;;
80111;SDS011;69421;51.062;3.728;2024-01-06T05:16:34;6.90;;;2.60;;
80111;SDS011;69421;51.062;3.728;2024-01-06T05:18:59;6.10;;;2.77;;
80111;SDS011;69421;51.062;3.728;2024-01-06T05:21:25;7.55;;;3.40;;
80111;SDS011;69421;51.062;3.728;2024-01-06T05:23:50;5.55;;;2.92;;
80111;SDS011;69421;51.062;3.728;2024-01-06T05:26:16;9.20;;;3.90;;
80111;SDS011;69421;51.062;3.728;2024-01-06T05:28:41;11.50;;;3.10;;
80111;SDS011;69421;51.062;3.728;2024-01-06T05:31:06;8.87;;;3.60;;
80111;SDS011;69421;51.062;3.728;2024-01-06T05:33:32;8.33;;;4.00;;
80111;SDS011;69421;51.062;3.728;2024-01-06T05:35:57;10.57;;;3.57;;
80111;SDS011;69421;51.062;3.728;2024-01-06T05:38:23;9.87;;;4.23;;
80111;SDS011;69421;51.062;3.728;2024-01-06T05:40:48;10.33;;;4.63;;
80111;SDS011;69421;51.062;3.728;2024-01-06T05:43:13;13.30;;;4.17;;
80111;SDS011;69421;51.062;3.728;2024-01-06T05:45:39;14.00;;;5.65;;
80111;SDS011;69421;51.062;3.728;2024-01-06T05:48:10;8.63;;;4.22;;
80111;SDS011;69421;51.062;3.728;2024-01-06T05:50:36;11.40;;;5.10;;
80111;SDS011;69421;51.062;3.728;2024-01-06T05:53:04;8.45;;;3.83;;
80111;SDS011;69421;51.062;3.728;2024-01-06T05:55:29;9.73;;;4.27;;
80111;SDS011;69421;51.062;3.728;2024-01-06T05:57:54;17.33;;;5.63;;
80111;SDS011;69421;51.062;3.728;2024-01-06T06:00:20;11.60;;;4.73;;
80111;SDS011;69421;51.062;3.728;2024-01-06T06:02:45;11.40;;;4.38;;
80111;SDS011;69421;51.062;3.728;2024-01-06T06:05:11;11.23;;;5.77;;
80111;SDS011;69421;51.062;3.728;2024-01-06T06:07:36;11.53;;;5.60;;
80111;SDS011;69421;51.062;3.728;2024-01-06T06:10:07;9.57;;;4.78;;
80111;SDS011;69421;51.062;3.728;2024-01-06T06:12:37;12.13;;;5.22;;
80111;SDS011;69421;51.062;3.728;2024-01-06T06:15:03;16.30;;;5.25;;
80111;SDS011;69421;51.062;3.728;2024-01-06T06:17:32;10.98;;;6.07;;
80111;SDS011;69421;51.062;3.728;2024-01-06T06:19:58;13.30;;;5.95;;
80111;SDS011;69421;51.062;3.728;2024-01-06T06:22:24;10.30;;;5.18;;
80111;SDS011;69421;51.062;3.728;2024-01-06T06:24:52;15.80;;;6.50;;
80111;SDS011;69421;51.062;3.728;2024-01-06T06:27:17;14.15;;;5.72;;
80111;SDS011;69421;51.062;3.728;2024-01-06T06:29:43;11.32;;;4.97;;
80111;SDS011;69421;51.062;3.728;2024-01-06T06:32:08;11.97;;;6.13;;
80111;SDS011;69421;51.062;3.728;2024-01-06T06:34:34;12.25;;;6.55;;
80111;SDS011;69421;51.062;3.728;2024-01-06T06:36:59;11.77;;;5.77;;
80111;SDS011;69421;51.062;3.728;2024-01-06T06:39:25;15.02;;;6.28;;
80111;SDS011;69421;51.062;3.728;2024-01-06T06:41:52;12.00;;;6.57;;
80111;SDS011;69421;51.062;3.728;2024-01-06T06:44:17;13.83;;;6.10;;
80111;SDS011;69421;51.062;3.728;2024-01-06T06:46:42;15.20;;;5.65;;
80111;SDS011;69421;51.062;3.728;2024-01-06T06:49:08;14.10;;;6.60;;
80111;SDS011;69421;51.062;3.728;2024-01-06T06:51:33;14.50;;;7.10;;
80111;SDS011;69421;51.062;3.728;2024-01-06T06:53:58;19.43;;;6.80;;
80111;SDS011;69421;51.062;3.728;2024-01-06T06:56:24;14.17;;;6.13;;
80111;SDS011;69421;51.062;3.728;2024-01-06T06:58:49;10.07;;;4.80;;
80111;SDS011;69421;51.062;3.728;2024-01-06T07:01:15;11.07;;;5.53;;
80111;SDS011;69421;51.062;3.728;2024-01-06T07:03:40;14.30;;;5.75;;
80111;SDS011;69421;51.062;3.728;2024-01-06T07:06:06;10.82;;;5.50;;
80111;SDS011;69421;51.062;3.728;2024-01-06T07:08:31;15.17;;;5.90;;
80111;SDS011;69421;51.062;3.728;2024-01-06T07:10:57;15.33;;;6.47;;
80111;SDS011;69421;51.062;3.728;2024-01-06T07:13:22;12.70;;;6.40;;
80111;SDS011;69421;51.062;3.728;2024-01-06T07:15:47;18.50;;;6.37;;
80111;SDS011;69421;51.062;3.728;2024-01-06T07:18:13;19.90;;;9.60;;
80111;SDS011;69421;51.062;3.728;2024-01-06T07:20:38;17.50;;;9.03;;
80111;SDS011;69421;51.062;3.728;2024-01-06T07:23:04;19.00;;;9.95;;
80111;SDS011;69421;51.062;3.728;2024-01-06T07:25:29;16.07;;;10.10;;
80111;SDS011;69421;51.062;3.728;2024-01-06T07:27:55;19.70;;;9.35;;
80111;SDS011;69421;51.062;3.728;2024-01-06T07:30:21;18.08;;;8.23;;
80111;SDS011;69421;51.062;3.728;2024-01-06T07:32:46;18.67;;;8.30;;
80111;SDS011;69421;51.062;3.728;2024-01-06T07:35:12;17.80;;;8.98;;
80111;SDS011;69421;51.062;3.728;2024-01-06T07:37:39;23.13;;;9.13;;
80111;SDS011;69421;51.062;3.728;2024-01-06T07:40:04;17.13;;;8.63;;
80111;SDS011;69421;51.062;3.728;2024-01-06T07:42:30;15.30;;;7.70;;
80111;SDS011;69421;51.062;3.728;2024-01-06T07:44:56;17.85;;;8.50;;
80111;SDS011;69421;51.062;3.728;2024-01-06T07:47:25;20.98;;;9.15;;
80111;SDS011;69421;51.062;3.728;2024-01-06T07:49:50;16.98;;;7.75;;
80111;SDS011;69421;51.062;3.728;2024-01-06T07:52:18;20.73;;;8.85;;
80111;SDS011;69421;51.062;3.728;2024-01-06T07:54:43;17.07;;;9.13;;
80111;SDS011;69421;51.062;3.728;2024-01-06T07:57:08;20.20;;;10.05;;
80111;SDS011;69421;51.062;3.728;2024-01-06T07:59:36;16.58;;;8.85;;
80111;SDS011;69421;51.062;3.728;2024-01-06T08:02:01;13.00;;;6.35;;
80111;SDS011;69421;51.062;3.728;2024-01-06T08:04:27;11.90;;;6.18;;
80111;SDS011;69421;51.062;3.728;2024-01-06T08:06:52;11.60;;;6.07;;
80111;SDS011;69421;51.062;3.728;2024-01-06T08:09:17;11.75;;;6.32;;
80111;SDS011;69421;51.062;3.728;2024-01-06T08:11:43;11.77;;;5.23;;
80111;SDS011;69421;51.062;3.728;2024-01-06T08:14:13;17.35;;;6.80;;
80111;SDS011;69421;51.062;3.728;2024-01-06T08:16:38;10.93;;;5.40;;
80111;SDS011;69421;51.062;3.728;2024-01-06T08:19:04;13.90;;;6.60;;
80111;SDS011;69421;51.062;3.728;2024-01-06T08:21:29;12.67;;;6.17;;
80111;SDS011;69421;51.062;3.728;2024-01-06T08:23:54;12.97;;;6.00;;
80111;SDS011;69421;51.062;3.728;2024-01-06T08:26:20;12.27;;;5.95;;
80111;SDS011;69421;51.062;3.728;2024-01-06T08:28:49;13.20;;;5.50;;
80111;SDS011;69421;51.062;3.728;2024-01-06T08:31:14;15.27;;;6.40;;
80111;SDS011;69421;51.062;3.728;2024-01-06T08:33:40;15.53;;;6.57;;
80111;SDS011;69421;51.062;3.728;2024-01-06T08:36:08;11.10;;;4.57;;
80111;SDS011;69421;51.062;3.728;2024-01-06T08:38:34;12.10;;;5.10;;
80111;SDS011;69421;51.062;3.728;2024-01-06T08:41:00;11.82;;;5.40;;
80111;SDS011;69421;51.062;3.728;2024-01-06T08:43:26;14.48;;;5.95;;
80111;SDS011;69421;51.062;3.728;2024-01-06T08:45:51;12.60;;;4.90;;
80111;SDS011;69421;51.062;3.728;2024-01-06T08:48:17;8.57;;;5.47;;
80111;SDS011;69421;51.062;3.728;2024-01-06T08:50:43;8.73;;;4.07;;
80111;SDS011;69421;51.062;3.728;2024-01-06T08:53:10;8.35;;;4.13;;
80111;SDS011;69421;51.062;3.728;2024-01-06T08:55:36;9.77;;;4.85;;
80111;SDS011;69421;51.062;3.728;2024-01-06T08:58:01;7.93;;;4.40;;
80111;SDS011;69421;51.062;3.728;2024-01-06T09:00:26;9.18;;;4.38;;
80111;SDS011;69421;51.062;3.728;2024-01-06T09:02:52;6.70;;;4.27;;
80111;SDS011;69421;51.062;3.728;2024-01-06T09:05:17;9.83;;;3.43;;
80111;SDS011;69421;51.062;3.728;2024-01-06T09:07:43;5.93;;;3.83;;
80111;SDS011;69421;51.062;3.728;2024-01-06T09:10:09;6.07;;;3.40;;
80111;SDS011;69421;51.062;3.728;2024-01-06T09:12:35;7.15;;;3.13;;
80111;SDS011;69421;51.062;3.728;2024-01-06T09:15:00;8.52;;;4.80;;
80111;SDS011;69421;51.062;3.728;2024-01-06T09:17:25;8.83;;;5.03;;
80111;SDS011;69421;51.062;3.728;2024-01-06T09:19:51;8.20;;;4.53;;
80111;SDS011;69421;51.062;3.728;2024-01-06T09:22:21;12.80;;;5.32;;
80111;SDS011;69421;51.062;3.728;2024-01-06T09:24:47;9.32;;;4.55;;
80111;SDS011;69421;51.062;3.728;2024-01-06T09:27:12;8.98;;;4.57;;
80111;SDS011;69421;51.062;3.728;2024-01-06T09:29:38;7.43;;;3.75;;
80111;SDS011;69421;51.062;3.728;2024-01-06T09:32:03;6.05;;;3.45;;
80111;SDS011;69421;51.062;3.728;2024-01-06T09:34:29;12.55;;;4.28;;
80111;SDS011;69421;51.062;3.728;2024-01-06T09:36:54;7.23;;;4.07;;
80111;SDS011;69421;51.062;3.728;2024-01-06T09:39:19;6.83;;;3.60;;
80111;SDS011;69421;51.062;3.728;2024-01-06T09:41:45;8.23;;;5.00;;
80111;SDS011;69421;51.062;3.728;2024-01-06T09:44:10;8.50;;;4.07;;
80111;SDS011;69421;51.062;3.728;2024-01-06T09:46:36;6.77;;;3.90;;
80111;SDS011;69421;51.062;3.728;2024-01-06T09:49:02;7.68;;;3.83;;
80111;SDS011;69421;51.062;3.728;2024-01-06T09:51:28;6.43;;;4.13;;
80111;SDS011;69421;51.062;3.728;2024-01-06T09:53:58;9.18;;;4.15;;
80111;SDS011;69421;51.062;3.728;2024-01-06T09:56:25;6.93;;;3.50;;
80111;SDS011;69421;51.062;3.728;2024-01-06T09:58:51;5.63;;;2.67;;
80111;SDS011;69421;51.062;3.728;2024-01-06T10:01:19;6.15;;;2.90;;
80111;SDS011;69421;51.062;3.728;2024-01-06T10:03:45;7.70;;;4.20;;
80111;SDS011;69421;51.062;3.728;2024-01-06T10:06:11;8.30;;;5.95;;
80111;SDS011;69421;51.062;3.728;2024-01-06T10:08:36;10.88;;;7.15;;
80111;SDS011;69421;51.062;3.728;2024-01-06T10:11:05;8.50;;;5.40;;
80111;SDS011;69421;51.062;3.728;2024-01-06T10:13:31;10.82;;;5.32;;
80111;SDS011;69421;51.062;3.728;2024-01-06T10:15:57;12.45;;;7.13;;
80111;SDS011;69421;51.062;3.728;2024-01-06T10:18:23;12.60;;;5.60;;
80111;SDS011;69421;51.062;3.728;2024-01-06T10:20:50;11.63;;;6.30;;
80111;SDS011;69421;51.062;3.728;2024-01-06T10:23:16;10.40;;;7.20;;
80111;SDS011;69421;51.062;3.728;2024-01-06T10:25:42;8.83;;;4.90;;
80111;SDS011;69421;51.062;3.728;2024-01-06T10:28:10;10.18;;;4.90;;
80111;SDS011;69421;51.062;3.728;2024-01-06T10:30:37;7.50;;;4.63;;
80111;SDS011;69421;51.062;3.728;2024-01-06T10:33:03;9.65;;;5.05;;
80111;SDS011;69421;51.062;3.728;2024-01-06T10:35:33;9.75;;;4.53;;
80111;SDS011;69421;51.062;3.728;2024-01-06T10:38:00;7.10;;;3.83;;
80111;SDS011;69421;51.062;3.728;2024-01-06T10:40:26;9.27;;;4.57;;
80111;SDS011;69421;51.062;3.728;2024-01-06T10:42:51;6.30;;;4.30;;
80111;SDS011;69421;51.062;3.728;2024-01-06T10:45:17;16.25;;;6.70;;
80111;SDS011;69421;51.062;3.728;2024-01-06T10:47:43;6.97;;;4.70;;
80111;SDS011;69421;51.062;3.728;2024-01-06T10:50:08;9.90;;;5.07;;
80111;SDS011;69421;51.062;3.728;2024-01-06T10:52:34;7.45;;;3.58;;
80111;SDS011;69421;51.062;3.728;2024-01-06T10:55:00;6.00;;;3.10;;
80111;SDS011;69421;51.062;3.728;2024-01-06T10:57:26;8.23;;;3.70;;
80111;SDS011;69421;51.062;3.728;2024-01-06T10:59:53;7.97;;;3.22;;
80111;SDS011;69421;51.062;3.728;2024-01-06T11:02:19;5.72;;;3.10;;
80111;SDS011;69421;51.062;3.728;2024-01-06T11:04:47;9.30;;;3.88;;
80111;SDS011;69421;51.062;3.728;2024-01-06T11:07:15;6.70;;;3.28;;
80111;SDS011;69421;51.062;3.728;2024-01-06T11:09:47;8.10;;;2.72;;
80111;SDS011;69421;51.062;3.728;2024-01-06T11:12:16;8.85;;;4.05;;
80111;SDS011;69421;51.062;3.728;2024-01-06T11:14:42;5.40;;;3.25;;
80111;SDS011;69421;51.062;3.728;2024-01-06T11:17:07;5.82;;;3.35;;
80111;SDS011;69421;51.062;3.728;2024-01-06T11:25:06;7.22;;;3.47;;
80111;SDS011;69421;51.062;3.728;2024-01-06T11:27:32;4.63;;;2.60;;
80111;SDS011;69421;51.062;3.728;2024-01-06T11:29:59;4.72;;;2.80;;
80111;SDS011;69421;51.062;3.728;2024-01-06T11:37:37;5.50;;;3.05;;
80111;SDS011;69421;51.062;3.728;2024-01-06T11:45:25;4.35;;;3.35;;
80111;SDS011;69421;51.062;3.728;2024-01-06T11:47:52;3.92;;;3.08;;
80111;SDS011;69421;51.062;3.728;2024-01-06T11:50:27;6.43;;;3.45;;
80111;SDS011;69421;51.062;3.728;2024-01-06T11:52:53;7.25;;;3.72;;
80111;SDS011;69421;51.062;3.728;2024-01-06T11:55:20;6.68;;;3.58;;
80111;SDS011;69421;51.062;3.728;2024-01-06T11:57:46;5.70;;;3.70;;
80111;SDS011;69421;51.062;3.728;2024-01-06T12:00:12;3.53;;;2.63;;
80111;SDS011;69421;51.062;3.728;2024-01-06T12:02:41;7.80;;;3.80;;
80111;SDS011;69421;51.062;3.728;2024-01-06T12:05:12;5.35;;;2.47;;
80111;SDS011;69421;51.062;3.728;2024-01-06T12:07:43;4.75;;;2.72;;
80111;SDS011;69421;51.062;3.728;2024-01-06T12:10:09;4.45;;;1.83;;
80111;SDS011;69421;51.062;3.728;2024-01-06T12:12:36;5.88;;;1.80;;
80111;SDS011;69421;51.062;3.728;2024-01-06T12:15:01;5.95;;;1.80;;
80111;SDS011;69421;51.062;3.728;2024-01-06T12:17:30;3.42;;;1.75;;
80111;SDS011;69421;51.062;3.728;2024-01-06T12:22:21;4.67;;;1.97;;
80111;SDS011;69421;51.062;3.728;2024-01-06T12:24:51;8.20;;;2.92;;
80111;SDS011;69421;51.062;3.728;2024-01-06T12:27:17;4.10;;;2.70;;
80111;SDS011;69421;51.062;3.728;2024-01-06T12:29:43;7.18;;;2.22;;
80111;SDS011;69421;51.062;3.728;2024-01-06T12:32:09;4.03;;;2.65;;
80111;SDS011;69421;51.062;3.728;2024-01-06T12:34:35;3.75;;;2.47;;
80111;SDS011;69421;51.062;3.728;2024-01-06T12:37:01;4.18;;;1.77;;
80111;SDS011;69421;51.062;3.728;2024-01-06T12:39:27;4.53;;;2.03;;
80111;SDS011;69421;51.062;3.728;2024-01-06T12:41:56;6.75;;;1.85;;
80111;SDS011;69421;51.062;3.728;2024-01-06T12:44:22;3.75;;;2.00;;
80111;SDS011;69421;51.062;3.728;2024-01-06T12:46:48;4.78;;;2.70;;
80111;SDS011;69421;51.062;3.728;2024-01-06T12:49:14;8.55;;;2.47;;
80111;SDS011;69421;51.062;3.728;2024-01-06T12:51:39;2.67;;;1.58;;
80111;SDS011;69421;51.062;3.728;2024-01-06T12:54:05;3.72;;;1.83;;
80111;SDS011;69421;51.062;3.728;2024-01-06T12:56:30;7.20;;;2.00;;
80111;SDS011;69421;51.062;3.728;2024-01-06T12:58:55;3.03;;;1.53;;
80111;SDS011;69421;51.062;3.728;2024-01-06T13:01:21;1.97;;;1.23;;
80111;SDS011;69421;51.062;3.728;2024-01-06T13:03:47;5.55;;;2.63;;
80111;SDS011;69421;51.062;3.728;2024-01-06T13:06:12;3.85;;;1.88;;
80111;SDS011;69421;51.062;3.728;2024-01-06T13:08:38;4.50;;;1.75;;
80111;SDS011;69421;51.062;3.728;2024-01-06T13:11:04;6.20;;;2.65;;
80111;SDS011;69421;51.062;3.728;2024-01-06T13:13:29;4.15;;;1.48;;
80111;SDS011;69421;51.062;3.728;2024-01-06T13:15:56;4.38;;;1.92;;
80111;SDS011;69421;51.062;3.728;2024-01-06T13:18:22;5.85;;;2.65;;
80111;SDS011;69421;51.062;3.728;2024-01-06T13:20:47;6.23;;;2.40;;
80111;SDS011;69421;51.062;3.728;2024-01-06T13:23:13;6.57;;;2.83;;
80111;SDS011;69421;51.062;3.728;2024-01-06T13:25:38;6.07;;;1.90;;
80111;SDS011;69421;51.062;3.728;2024-01-06T13:28:05;5.05;;;1.83;;
80111;SDS011;69421;51.062;3.728;2024-01-06T13:30:31;4.10;;;1.65;;
80111;SDS011;69421;51.062;3.728;2024-01-06T13:32:57;3.35;;;1.50;;
80111;SDS011;69421;51.062;3.728;2024-01-06T13:35:23;3.28;;;1.85;;
80111;SDS011;69421;51.062;3.728;2024-01-06T13:37:53;4.30;;;2.08;;
80111;SDS011;69421;51.062;3.728;2024-01-06T13:42:47;2.83;;;1.90;;
80111;SDS011;69421;51.062;3.728;2024-01-06T13:45:14;2.35;;;1.63;;
80111;SDS011;69421;51.062;3.728;2024-01-06T13:47:39;5.68;;;1.85;;
80111;SDS011;69421;51.062;3.728;2024-01-06T13:50:10;3.28;;;1.90;;
80111;SDS011;69421;51.062;3.728;2024-01-06T13:52:36;3.78;;;2.92;;
80111;SDS011;69421;51.062;3.728;2024-01-06T13:55:02;3.88;;;1.65;;
80111;SDS011;69421;51.062;3.728;2024-01-06T13:57:27;2.45;;;1.55;;
80111;SDS011;69421;51.062;3.728;2024-01-06T13:59:53;5.47;;;2.50;;
80111;SDS011;69421;51.062;3.728;2024-01-06T14:02:18;3.85;;;1.50;;
80111;SDS011;69421;51.062;3.728;2024-01-06T14:04:44;4.13;;;1.67;;
80111;SDS011;69421;51.062;3.728;2024-01-06T14:07:09;4.10;;;2.30;;
80111;SDS011;69421;51.062;3.728;2024-01-06T14:09:35;4.05;;;2.08;;
80111;SDS011;69421;51.062;3.728;2024-01-06T14:12:01;4.60;;;1.83;;
80111;SDS011;69421;51.062;3.728;2024-01-06T14:14:26;2.75;;;2.05;;
80111;SDS011;69421;51.062;3.728;2024-01-06T14:16:52;3.63;;;1.43;;
80111;SDS011;69421;51.062;3.728;2024-01-06T14:19:17;2.28;;;1.52;;
80111;SDS011;69421;51.062;3.728;2024-01-06T14:21:43;8.43;;;2.30;;
80111;SDS011;69421;51.062;3.728;2024-01-06T14:24:08;4.03;;;1.93;;
80111;SDS011;69421;51.062;3.728;2024-01-06T14:26:33;6.20;;;2.27;;
80111;SDS011;69421;51.062;3.728;2024-01-06T14:28:59;2.90;;;1.73;;
80111;SDS011;69421;51.062;3.728;2024-01-06T14:31:25;2.47;;;1.50;;
80111;SDS011;69421;51.062;3.728;2024-01-06T14:33:52;2.75;;;1.50;;
80111;SDS011;69421;51.062;3.728;2024-01-06T14:36:17;1.75;;;1.00;;
80111;SDS011;69421;51.062;3.728;2024-01-06T14:38:43;1.58;;;1.13;;
80111;SDS011;69421;51.062;3.728;2024-01-06T14:41:08;1.92;;;1.00;;
80111;SDS011;69421;51.062;3.728;2024-01-06T14:43:34;2.53;;;1.27;;
80111;SDS011;69421;51.062;3.728;2024-01-06T14:45:59;5.00;;;2.90;;
80111;SDS011;69421;51.062;3.728;2024-01-06T14:48:24;13.50;;;8.50;;
80111;SDS011;69421;51.062;3.728;2024-01-06T14:50:50;6.73;;;3.60;;
80111;SDS011;69421;51.062;3.728;2024-01-06T14:53:16;6.35;;;3.08;;
80111;SDS011;69421;51.062;3.728;2024-01-06T14:55:41;3.80;;;1.88;;
80111;SDS011;69421;51.062;3.728;2024-01-06T14:58:07;3.30;;;1.77;;
80111;SDS011;69421;51.062;3.728;2024-01-06T15:00:34;3.75;;;2.50;;